createdAt,value
2022-11-30T00:02:00.096Z,102158.39
2022-11-30T00:04:28.695Z,102157.66
2022-11-30T00:07:00.012Z,102160.23
2022-11-30T00:09:28.472Z,102160.66
2022-11-30T00:11:56.957Z,102165.27
2022-11-30T00:14:25.435Z,102157.45
2022-11-30T00:16:54.087Z,102157.70
2022-11-30T00:19:22.657Z,102161.48
2022-11-30T00:21:51.173Z,102166.42
2022-11-30T00:24:19.626Z,102164.38
2022-11-30T00:26:48.385Z,102171.15
2022-11-30T00:29:16.904Z,102164.91
2022-11-30T00:31:45.566Z,102167.51
2022-11-30T00:34:14.188Z,102162.96
2022-11-30T00:36:42.691Z,102165.69
2022-11-30T00:39:14.206Z,102168.23
2022-11-30T00:41:42.714Z,102167.70
2022-11-30T00:44:11.426Z,102171.33
2022-11-30T00:46:41.091Z,102171.30
2022-11-30T00:51:53.088Z,102169.64
2022-11-30T00:54:21.835Z,102167.45
2022-11-30T00:56:50.265Z,102173.75
2022-11-30T00:59:18.727Z,102171.67
2022-11-30T01:01:48.524Z,102173.13
2022-11-30T01:04:17.160Z,102179.80
2022-11-30T01:06:45.884Z,102178.54
2022-11-30T01:09:42.133Z,102178.14
2022-11-30T01:12:10.547Z,102180.33
2022-11-30T01:14:39.031Z,102184.27
2022-11-30T01:17:07.638Z,102188.50
2022-11-30T01:19:35.840Z,102189.98
2022-11-30T01:22:04.247Z,102186.98
2022-11-30T01:24:33.199Z,102187.85
2022-11-30T01:27:01.728Z,102195.48
2022-11-30T01:29:30.112Z,102194.10
2022-11-30T01:31:58.568Z,102192.91
2022-11-30T01:34:27.009Z,102192.51
2022-11-30T01:36:55.515Z,102189.38
2022-11-30T01:39:24.126Z,102192.64
2022-11-30T01:41:54.598Z,102190.73
2022-11-30T01:44:55.069Z,102194.57
2022-11-30T01:47:27.673Z,102197.83
2022-11-30T01:50:01.195Z,102202.60
2022-11-30T01:52:35.636Z,102200.18
2022-11-30T01:55:14.145Z,102205.73
2022-11-30T01:57:48.154Z,102202.93
2022-11-30T02:00:18.847Z,102203.11
2022-11-30T02:02:56.652Z,102204.05
2022-11-30T02:05:49.042Z,102206.45
2022-11-30T02:11:07.678Z,102210.04
2022-11-30T02:13:51.833Z,102211.09
2022-11-30T02:16:26.793Z,102213.20
2022-11-30T02:19:04.650Z,102216.75
2022-11-30T02:21:45.630Z,102217.10
2022-11-30T02:24:33.099Z,102217.25
2022-11-30T02:27:14.792Z,102223.80
2022-11-30T02:29:47.317Z,102222.09
2022-11-30T02:32:28.738Z,102221.66
2022-11-30T02:35:02.810Z,102225.07
2022-11-30T02:37:33.923Z,102222.91
2022-11-30T02:40:07.694Z,102223.38
2022-11-30T02:42:37.222Z,102225.19
2022-11-30T02:45:07.890Z,102227.08
2022-11-30T02:47:41.089Z,102225.45
2022-11-30T02:50:22.473Z,102226.71
2022-11-30T02:52:51.944Z,102225.67
2022-11-30T02:55:20.883Z,102231.05
2022-11-30T02:57:49.340Z,102231.20
2022-11-30T03:00:19.864Z,102230.19
2022-11-30T03:03:00.601Z,102227.91
2022-11-30T03:05:29.430Z,102230.71
2022-11-30T03:07:57.952Z,102231.69
2022-11-30T03:10:26.426Z,102235.14
2022-11-30T03:12:58.409Z,102234.20
2022-11-30T03:15:27.601Z,102236.91
2022-11-30T03:17:56.065Z,102239.33
2022-11-30T03:20:25.011Z,102235.59
2022-11-30T03:22:53.711Z,102239.80
2022-11-30T03:25:22.197Z,102237.73
2022-11-30T03:27:51.037Z,102240.34
2022-11-30T03:30:19.969Z,102240.27
2022-11-30T03:32:50.882Z,102239.11
2022-11-30T03:35:31.994Z,102241.63
2022-11-30T03:38:00.760Z,102241.87
2022-11-30T03:40:29.595Z,102244.17
2022-11-30T03:42:58.225Z,102246.14
2022-11-30T03:45:26.697Z,102247.45
2022-11-30T03:47:55.389Z,102247.27
2022-11-30T03:50:23.794Z,102249.40
2022-11-30T03:52:52.252Z,102250.71
2022-11-30T03:55:20.677Z,102249.79
2022-11-30T03:57:49.273Z,102248.60
2022-11-30T04:00:20.474Z,102251.52
2022-11-30T04:02:52.042Z,102252.67
2022-11-30T04:05:21.855Z,102251.23
2022-11-30T04:07:50.351Z,102252.59
2022-11-30T04:10:19.495Z,102252.15
2022-11-30T04:12:48.007Z,102255.48
2022-11-30T04:15:16.837Z,102254.59
2022-11-30T04:17:45.467Z,102255.27
2022-11-30T04:20:14.465Z,102258.40
2022-11-30T04:22:45.449Z,102252.14
2022-11-30T04:25:13.883Z,102257.58
2022-11-30T04:27:44.598Z,102256.83
2022-11-30T04:30:15.161Z,102257.98
2022-11-30T04:32:43.642Z,102259.56
2022-11-30T04:35:12.207Z,102265.13
2022-11-30T04:37:40.952Z,102264.48
2022-11-30T04:40:11.457Z,102266.98
2022-11-30T04:42:40.934Z,102268.89
2022-11-30T04:45:11.577Z,102269.83
2022-11-30T04:47:40.186Z,102269.70
2022-11-30T04:50:10.707Z,102274.28
2022-11-30T04:52:39.207Z,102273.34
2022-11-30T04:55:17.123Z,102273.11
2022-11-30T04:57:47.357Z,102281.38
2022-11-30T05:00:18.523Z,102283.88
2022-11-30T05:02:52.555Z,102284.36
2022-11-30T05:05:21.892Z,102287.57
2022-11-30T05:07:54.948Z,102287.85
2022-11-30T05:10:24.291Z,102289.67
2022-11-30T05:12:53.068Z,102291.84
2022-11-30T05:15:24.403Z,102291.20
2022-11-30T05:17:59.366Z,102292.67
2022-11-30T05:20:31.881Z,102295.40
2022-11-30T05:23:20.693Z,102297.29
2022-11-30T05:25:51.948Z,102296.45
2022-11-30T05:28:20.641Z,102295.07
2022-11-30T05:31:04.593Z,102297.08
2022-11-30T05:33:33.956Z,102299.38
2022-11-30T05:36:07.177Z,102298.34
2022-11-30T05:38:38.731Z,102300.39
2022-11-30T05:41:07.292Z,102301.66
2022-11-30T05:43:36.205Z,102305.08
2022-11-30T05:46:06.890Z,102305.00
2022-11-30T05:48:35.659Z,102314.34
2022-11-30T05:51:09.589Z,102314.05
2022-11-30T05:53:38.615Z,102313.71
2022-11-30T05:56:10.124Z,102317.68
2022-11-30T05:58:38.842Z,102318.73
2022-11-30T06:01:08.345Z,102317.52
2022-11-30T06:03:36.799Z,102316.86
2022-11-30T06:06:05.945Z,102319.84
2022-11-30T06:08:34.439Z,102322.25
2022-11-30T06:11:05.246Z,102324.02
2022-11-30T06:13:40.921Z,102323.96
2022-11-30T06:16:24.073Z,102322.64
2022-11-30T06:19:29.278Z,102319.61
2022-11-30T06:22:00.673Z,102320.20
2022-11-30T06:24:50.194Z,102323.60
2022-11-30T06:27:18.729Z,102320.44
2022-11-30T06:29:47.176Z,102327.69
2022-11-30T06:32:15.613Z,102330.67
2022-11-30T06:34:44.223Z,102337.25
2022-11-30T06:37:12.849Z,102339.23
2022-11-30T06:40:05.563Z,102340.49
2022-11-30T06:42:32.473Z,102336.70
2022-11-30T06:45:00.886Z,102338.23
2022-11-30T06:47:29.629Z,102338.66
2022-11-30T06:49:58.389Z,102344.46
2022-11-30T06:52:26.934Z,102341.76
2022-11-30T06:54:55.428Z,102341.80
2022-11-30T06:57:34.918Z,102345.30
2022-11-30T07:00:05.616Z,102349.16
2022-11-30T07:02:34.440Z,102348.97
2022-11-30T07:05:04.030Z,102352.10
2022-11-30T07:07:32.838Z,102353.85
2022-11-30T07:10:01.476Z,102359.05
2022-11-30T07:12:29.950Z,102360.98
2022-11-30T07:14:58.425Z,102361.22
2022-11-30T07:17:27.416Z,102360.77
2022-11-30T07:19:56.654Z,102362.77
2022-11-30T07:22:26.146Z,102365.61
2022-11-30T07:25:16.168Z,102363.81
2022-11-30T07:27:44.598Z,102371.75
2022-11-30T07:30:14.675Z,102374.83
2022-11-30T07:32:43.262Z,102378.18
2022-11-30T07:35:13.774Z,102381.23
2022-11-30T07:37:42.456Z,102384.77
2022-11-30T07:40:14.508Z,102386.89
2022-11-30T07:42:46.116Z,102391.88
2022-11-30T07:45:15.573Z,102393.32
2022-11-30T07:47:44.024Z,102393.09
2022-11-30T07:50:36.899Z,102392.55
2022-11-30T07:53:05.506Z,102394.82
2022-11-30T07:55:34.154Z,102393.83
2022-11-30T07:58:02.802Z,102393.69
2022-11-30T08:00:31.715Z,102393.80
2022-11-30T08:03:00.246Z,102392.35
2022-11-30T08:05:28.773Z,102396.55
2022-11-30T08:07:57.587Z,102392.05
2022-11-30T08:10:28.779Z,102396.27
2022-11-30T08:12:57.377Z,102392.46
2022-11-30T08:15:32.140Z,102398.00
2022-11-30T08:18:04.887Z,102398.72
2022-11-30T08:20:33.586Z,102401.80
2022-11-30T08:23:04.746Z,102406.95
2022-11-30T08:25:34.632Z,102409.02
2022-11-30T08:28:03.725Z,102406.80
2022-11-30T08:30:35.495Z,102406.43
2022-11-30T08:33:04.586Z,102411.81
2022-11-30T08:35:33.302Z,102413.34
2022-11-30T08:38:01.927Z,102417.81
2022-11-30T08:40:30.542Z,102414.94
2022-11-30T08:42:59.768Z,102414.31
2022-11-30T08:45:28.219Z,102419.94
2022-11-30T08:47:58.636Z,102420.35
2022-11-30T08:50:27.201Z,102419.60
2022-11-30T08:52:56.126Z,102421.97
2022-11-30T08:55:53.041Z,102426.27
2022-11-30T08:58:21.701Z,102430.52
2022-11-30T09:03:23.789Z,102432.98
2022-11-30T09:05:52.406Z,102430.95
2022-11-30T09:08:20.843Z,102438.04
2022-11-30T09:10:49.301Z,102438.70
2022-11-30T09:13:17.840Z,102437.43
2022-11-30T09:15:54.958Z,102441.45
2022-11-30T09:18:23.563Z,102440.10
2022-11-30T09:20:57.098Z,102440.48
2022-11-30T09:23:26.005Z,102438.88
2022-11-30T09:25:57.236Z,102440.14
2022-11-30T09:28:26.718Z,102441.75
2022-11-30T09:31:01.138Z,102443.51
2022-11-30T09:33:30.838Z,102445.42
2022-11-30T09:36:01.229Z,102443.90
2022-11-30T09:38:29.776Z,102448.07
2022-11-30T09:41:00.480Z,102448.30
2022-11-30T09:43:42.280Z,102451.64
2022-11-30T09:46:11.277Z,102448.27
2022-11-30T09:48:53.650Z,102445.62
2022-11-30T09:51:25.884Z,102449.68
2022-11-30T09:54:18.682Z,102448.45
2022-11-30T09:56:51.414Z,102453.80
2022-11-30T09:59:24.307Z,102452.47
2022-11-30T10:01:56.882Z,102448.98
2022-11-30T10:04:27.974Z,102454.18
2022-11-30T10:07:08.525Z,102448.89
2022-11-30T10:10:09.287Z,102450.38
2022-11-30T10:12:43.545Z,102448.40
2022-11-30T10:15:24.829Z,102449.08
2022-11-30T10:17:57.639Z,102449.45
2022-11-30T10:20:49.642Z,102450.79
2022-11-30T10:23:30.839Z,102450.35
2022-11-30T10:26:08.485Z,102452.02
2022-11-30T10:28:51.024Z,102451.39
2022-11-30T10:31:27.981Z,102446.70
2022-11-30T10:34:06.161Z,102447.17
2022-11-30T10:36:39.495Z,102446.61
2022-11-30T10:39:18.857Z,102445.48
2022-11-30T10:41:52.108Z,102443.17
2022-11-30T10:44:26.840Z,102444.88
2022-11-30T10:47:00.813Z,102443.02
2022-11-30T10:49:31.335Z,102438.15
2022-11-30T10:52:03.340Z,102436.13
2022-11-30T10:54:34.281Z,102433.34
2022-11-30T10:57:06.971Z,102428.83
2022-11-30T10:59:42.252Z,102429.51
2022-11-30T11:02:37.187Z,102429.08
2022-11-30T11:05:25.921Z,102422.23
2022-11-30T11:08:06.264Z,102417.84
2022-11-30T11:10:44.715Z,102417.91
2022-11-30T11:13:17.952Z,102415.38
2022-11-30T11:15:57.404Z,102418.58
2022-11-30T11:18:28.324Z,102416.11
2022-11-30T11:21:06.980Z,102415.95
2022-11-30T11:23:38.566Z,102415.90
2022-11-30T11:26:15.466Z,102412.88
2022-11-30T11:28:46.756Z,102413.67
2022-11-30T11:31:32.628Z,102417.20
2022-11-30T11:34:03.616Z,102416.39
2022-11-30T11:36:35.985Z,102415.38
2022-11-30T11:39:25.844Z,102419.08
2022-11-30T11:41:55.047Z,102414.95
2022-11-30T11:44:27.368Z,102420.46
2022-11-30T11:46:58.002Z,102423.66
2022-11-30T11:49:29.440Z,102425.52
2022-11-30T11:52:02.641Z,102425.27
2022-11-30T11:54:35.569Z,102429.21
2022-11-30T11:57:08.914Z,102427.27
2022-11-30T11:59:47.265Z,102427.20
2022-11-30T12:02:27.987Z,102426.85
2022-11-30T12:05:00.341Z,102427.77
2022-11-30T12:07:32.889Z,102427.36
2022-11-30T12:10:43.473Z,102430.85
2022-11-30T12:13:12.805Z,102431.08
2022-11-30T12:15:51.940Z,102433.02
2022-11-30T12:18:24.496Z,102434.85
2022-11-30T12:21:00.415Z,102437.08
2022-11-30T12:23:54.015Z,102437.38
2022-11-30T12:26:34.074Z,102434.95
2022-11-30T12:29:19.173Z,102439.94
2022-11-30T12:32:01.549Z,102444.42
2022-11-30T12:34:45.247Z,102443.30
2022-11-30T12:37:23.322Z,102444.35
2022-11-30T12:40:03.008Z,102442.08
2022-11-30T12:42:43.468Z,102442.82
2022-11-30T12:45:21.828Z,102436.11
2022-11-30T12:48:01.367Z,102434.48
2022-11-30T12:50:41.836Z,102436.00
2022-11-30T12:53:20.229Z,102434.06
2022-11-30T12:56:05.720Z,102435.56
2022-11-30T12:58:43.866Z,102438.20
2022-11-30T13:01:27.584Z,102436.71
2022-11-30T13:04:03.891Z,102437.73
2022-11-30T13:06:37.278Z,102435.94
2022-11-30T13:09:23.437Z,102436.20
2022-11-30T13:11:57.040Z,102436.37
2022-11-30T13:14:27.998Z,102439.34
2022-11-30T13:17:02.007Z,102437.31
2022-11-30T13:19:48.349Z,102441.96
2022-11-30T13:22:23.544Z,102444.46
2022-11-30T13:25:02.504Z,102445.51
2022-11-30T13:27:38.105Z,102444.98
2022-11-30T13:30:27.295Z,102446.29
2022-11-30T13:32:58.465Z,102442.78
2022-11-30T13:35:53.629Z,102446.48
2022-11-30T13:38:39.993Z,102444.20
2022-11-30T13:41:10.517Z,102446.06
2022-11-30T13:43:44.961Z,102446.35
2022-11-30T13:46:20.519Z,102445.88
2022-11-30T13:48:49.638Z,102443.19
2022-11-30T13:51:35.087Z,102446.73
2022-11-30T13:54:35.629Z,102447.06
2022-11-30T13:57:17.005Z,102446.42
2022-11-30T13:59:50.935Z,102450.30
2022-11-30T14:03:01.292Z,102451.95
2022-11-30T14:05:40.847Z,102454.77
2022-11-30T14:08:38.901Z,102457.05
2022-11-30T14:11:36.088Z,102454.81
2022-11-30T14:14:45.146Z,102457.45
2022-11-30T14:17:21.427Z,102458.64
2022-11-30T14:19:55.024Z,102460.63
2022-11-30T14:22:25.446Z,102455.48
2022-11-30T14:24:55.710Z,102452.70
2022-11-30T14:27:27.154Z,102447.62
2022-11-30T14:30:00.859Z,102448.23
2022-11-30T14:32:42.077Z,102452.69
2022-11-30T14:35:16.780Z,102452.80
2022-11-30T14:37:52.116Z,102450.41
2022-11-30T14:40:24.824Z,102454.66
2022-11-30T14:42:55.645Z,102455.98
2022-11-30T14:45:27.855Z,102450.94
2022-11-30T14:48:07.934Z,102449.92
2022-11-30T14:50:42.060Z,102452.55
2022-11-30T14:53:26.604Z,102455.30
2022-11-30T14:55:59.947Z,102453.33
2022-11-30T14:58:37.389Z,102456.38
2022-11-30T15:01:20.986Z,102460.52
2022-11-30T15:04:00.209Z,102460.91
2022-11-30T15:06:32.054Z,102464.20
2022-11-30T15:09:02.227Z,102464.08
2022-11-30T15:11:31.672Z,102468.24
2022-11-30T15:14:09.982Z,102472.72
2022-11-30T15:16:46.753Z,102472.28
2022-11-30T15:19:24.477Z,102474.73
2022-11-30T15:21:54.780Z,102474.10
2022-11-30T15:24:23.469Z,102475.06
2022-11-30T15:26:57.024Z,102474.73
2022-11-30T15:29:29.314Z,102479.39
2022-11-30T15:31:59.875Z,102479.38
2022-11-30T15:34:36.201Z,102481.55
2022-11-30T15:37:05.661Z,102484.23
2022-11-30T15:39:34.526Z,102484.71
2022-11-30T15:42:05.685Z,102488.58
2022-11-30T15:44:41.061Z,102488.55
2022-11-30T15:47:27.621Z,102489.17
2022-11-30T15:49:56.708Z,102491.55
2022-11-30T15:52:30.575Z,102489.44
2022-11-30T15:55:03.072Z,102489.18
2022-11-30T15:57:58.711Z,102491.11
2022-11-30T16:00:28.619Z,102488.58
2022-11-30T16:03:08.612Z,102491.76
2022-11-30T16:05:38.366Z,102487.75
2022-11-30T16:08:16.248Z,102485.09
2022-11-30T16:10:44.883Z,102490.81
2022-11-30T16:13:18.984Z,102492.90
2022-11-30T16:15:49.382Z,102496.59
2022-11-30T16:18:20.122Z,102490.90
2022-11-30T16:20:51.533Z,102490.52
2022-11-30T16:23:20.469Z,102491.89
2022-11-30T16:25:50.176Z,102495.95
2022-11-30T16:28:20.445Z,102492.72
2022-11-30T16:30:49.890Z,102488.42
2022-11-30T16:33:39.793Z,102492.52
2022-11-30T16:36:15.880Z,102500.08
2022-11-30T16:38:48.115Z,102505.52
2022-11-30T16:41:19.717Z,102508.46
2022-11-30T16:43:50.621Z,102506.05
2022-11-30T16:46:22.986Z,102503.10
2022-11-30T16:48:52.068Z,102502.77
2022-11-30T16:51:23.751Z,102503.41
2022-11-30T16:53:52.422Z,102502.29
2022-11-30T16:56:21.679Z,102504.44
2022-11-30T16:58:52.608Z,102502.03
2022-11-30T17:01:30.294Z,102502.62
2022-11-30T17:04:09.874Z,102500.02
2022-11-30T17:06:38.393Z,102499.61
2022-11-30T17:09:11.629Z,102494.52
2022-11-30T17:11:40.745Z,102493.98
2022-11-30T17:14:11.949Z,102496.36
2022-11-30T17:16:40.925Z,102493.39
2022-11-30T17:19:09.549Z,102496.48
2022-11-30T17:21:53.361Z,102500.91
2022-11-30T17:24:21.971Z,102499.58
2022-11-30T17:26:50.687Z,102504.30
2022-11-30T17:29:22.258Z,102500.05
2022-11-30T17:31:51.251Z,102501.20
2022-11-30T17:34:22.315Z,102505.80
2022-11-30T17:36:50.839Z,102507.88
2022-11-30T17:39:19.301Z,102507.35
2022-11-30T17:41:50.275Z,102508.54
2022-11-30T17:44:19.050Z,102510.23
2022-11-30T17:46:48.528Z,102519.20
2022-11-30T17:49:17.774Z,102523.48
2022-11-30T17:51:46.333Z,102525.49
2022-11-30T17:54:15.256Z,102526.09
2022-11-30T17:56:43.877Z,102527.99
2022-11-30T17:59:25.099Z,102532.39
2022-11-30T18:01:54.020Z,102532.67
2022-11-30T18:04:23.028Z,102534.83
2022-11-30T18:06:51.941Z,102533.43
2022-11-30T18:09:20.461Z,102535.09
2022-11-30T18:11:48.917Z,102536.40
2022-11-30T18:14:17.529Z,102535.14
2022-11-30T18:16:46.061Z,102533.45
2022-11-30T18:19:14.966Z,102535.29
2022-11-30T18:22:02.314Z,102536.59
2022-11-30T18:24:31.316Z,102539.48
2022-11-30T18:27:00.043Z,102541.02
2022-11-30T18:29:57.472Z,102541.65
2022-11-30T18:32:26.069Z,102545.08
2022-11-30T18:34:54.969Z,102542.47
2022-11-30T18:37:23.441Z,102543.36
2022-11-30T18:39:52.078Z,102546.64
2022-11-30T18:42:22.008Z,102551.42
2022-11-30T18:44:50.718Z,102551.80
2022-11-30T18:47:19.548Z,102553.27
2022-11-30T18:49:49.108Z,102551.67
2022-11-30T18:52:17.947Z,102553.39
2022-11-30T18:54:46.861Z,102551.63
2022-11-30T18:57:15.646Z,102552.04
2022-11-30T18:59:44.258Z,102553.13
2022-11-30T19:02:13.086Z,102555.03
2022-11-30T19:04:42.617Z,102552.71
2022-11-30T19:07:11.563Z,102552.15
2022-11-30T19:09:40.090Z,102552.23
2022-11-30T19:12:08.600Z,102557.67
2022-11-30T19:15:05.570Z,102560.65
2022-11-30T19:17:34.098Z,102560.77
2022-11-30T19:20:03.458Z,102566.34
2022-11-30T19:22:32.083Z,102566.13
2022-11-30T19:25:01.092Z,102563.56
2022-11-30T19:27:29.591Z,102565.39
2022-11-30T19:29:59.311Z,102564.53
2022-11-30T19:32:27.936Z,102562.55
2022-11-30T19:34:56.423Z,102564.60
2022-11-30T19:37:25.139Z,102563.11
2022-11-30T19:39:53.747Z,102565.91
2022-11-30T19:42:24.450Z,102566.27
2022-11-30T19:44:53.086Z,102565.23
2022-11-30T19:47:21.634Z,102569.30
2022-11-30T19:49:50.184Z,102574.54
2022-11-30T19:52:19.842Z,102571.90
2022-11-30T19:54:48.565Z,102573.05
2022-11-30T19:57:17.251Z,102573.10
2022-11-30T19:59:56.477Z,102575.23
2022-11-30T20:02:28.098Z,102574.91
2022-11-30T20:04:59.035Z,102570.30
2022-11-30T20:07:27.661Z,102570.11
2022-11-30T20:09:56.193Z,102578.08
2022-11-30T20:12:24.764Z,102576.02
2022-11-30T20:14:54.275Z,102576.52
2022-11-30T20:17:27.152Z,102575.79
2022-11-30T20:19:55.657Z,102578.86
2022-11-30T20:22:24.120Z,102578.57
2022-11-30T20:24:53.446Z,102572.65
2022-11-30T20:27:24.092Z,102574.55
2022-11-30T20:29:52.905Z,102575.22
2022-11-30T20:32:21.740Z,102574.55
2022-11-30T20:35:03.359Z,102577.83
2022-11-30T20:37:32.160Z,102578.50
2022-11-30T20:40:01.061Z,102578.20
2022-11-30T20:42:29.679Z,102576.56
2022-11-30T20:44:58.198Z,102582.08
2022-11-30T20:47:33.385Z,102584.02
2022-11-30T20:50:07.219Z,102583.76
2022-11-30T20:52:36.137Z,102585.09
2022-11-30T20:55:05.921Z,102585.42
2022-11-30T20:57:34.424Z,102591.69
2022-11-30T21:00:10.109Z,102594.04
2022-11-30T21:02:41.427Z,102596.79
2022-11-30T21:05:10.267Z,102598.05
2022-11-30T21:07:39.001Z,102598.31
2022-11-30T21:10:10.787Z,102599.84
2022-11-30T21:12:39.358Z,102594.18
2022-11-30T21:15:10.197Z,102589.64
2022-11-30T21:17:38.645Z,102587.28
2022-11-30T21:20:09.857Z,102582.02
2022-11-30T21:22:38.305Z,102578.38
2022-11-30T21:25:08.434Z,102578.85
2022-11-30T21:27:36.884Z,102579.42
2022-11-30T21:30:07.855Z,102579.01
2022-11-30T21:32:36.304Z,102579.91
2022-11-30T21:35:06.382Z,102582.86
2022-11-30T21:37:35.034Z,102586.92
2022-11-30T21:40:04.015Z,102584.95
2022-11-30T21:42:32.472Z,102585.92
2022-11-30T21:45:01.108Z,102582.37
2022-11-30T21:47:31.682Z,102587.02
2022-11-30T21:50:00.127Z,102584.90
2022-11-30T21:52:28.836Z,102585.47
2022-11-30T21:54:57.528Z,102583.52
2022-11-30T21:57:26.527Z,102581.37
2022-11-30T21:59:55.224Z,102586.85
2022-11-30T22:02:23.768Z,102586.25
2022-11-30T22:04:52.856Z,102583.67
2022-11-30T22:07:30.936Z,102587.52
2022-11-30T22:09:59.647Z,102588.41
2022-11-30T22:12:28.143Z,102587.44
2022-11-30T22:14:56.703Z,102588.38
2022-11-30T22:17:25.354Z,102591.34
2022-11-30T22:19:53.872Z,102589.86
2022-11-30T22:22:22.727Z,102588.56
2022-11-30T22:24:51.517Z,102588.93
2022-11-30T22:27:23.607Z,102586.95
2022-11-30T22:29:52.580Z,102585.58
2022-11-30T22:32:21.693Z,102581.55
2022-11-30T22:34:50.357Z,102580.17
2022-11-30T22:37:18.819Z,102581.02
2022-11-30T22:39:47.540Z,102577.58
2022-11-30T22:42:16.461Z,102574.21
2022-11-30T22:44:44.889Z,102577.68
2022-11-30T22:47:14.330Z,102573.20
2022-11-30T22:49:45.764Z,102570.74
2022-11-30T22:52:14.577Z,102563.36
2022-11-30T22:54:43.283Z,102569.52
2022-11-30T22:57:12.297Z,102567.77
2022-11-30T22:59:41.334Z,102567.16
2022-11-30T23:02:11.120Z,102569.39
2022-11-30T23:04:39.933Z,102567.98
2022-11-30T23:07:08.652Z,102568.05
2022-11-30T23:09:39.957Z,102566.52
2022-11-30T23:12:08.391Z,102560.56
2022-11-30T23:14:36.918Z,102561.64
2022-11-30T23:17:05.386Z,102562.84
2022-11-30T23:19:33.915Z,102561.45
2022-11-30T23:22:02.656Z,102561.02
2022-11-30T23:24:31.237Z,102557.96
2022-11-30T23:26:59.873Z,102554.42
2022-11-30T23:29:28.814Z,102553.64
2022-11-30T23:31:57.774Z,102552.77
2022-11-30T23:34:27.192Z,102554.48
2022-11-30T23:36:56.019Z,102555.16
2022-11-30T23:39:24.556Z,102554.79
2022-11-30T23:41:53.030Z,102556.05
2022-11-30T23:44:21.468Z,102551.70
2022-11-30T23:46:50.229Z,102549.86
2022-11-30T23:49:19.230Z,102550.95
2022-11-30T23:51:47.699Z,102549.05
2022-11-30T23:54:16.133Z,102549.23
2022-11-30T23:56:44.602Z,102549.02
2022-11-30T23:59:13.083Z,102549.98
